sensor_id;sensor_type;location;lat;lon;timestamp;P1;durP1;ratioP1;P2;durP2;ratioP2
28545;SDS011;15749;49.606;8.738;2022-10-31T00:01:46;5.50;;;4.20;;
28545;SDS011;15749;49.606;8.738;2022-10-31T00:04:58;7.40;;;4.60;;
28545;SDS011;15749;49.606;8.738;2022-10-31T00:07:46;7.93;;;4.50;;
28545;SDS011;15749;49.606;8.738;2022-10-31T00:10:38;6.60;;;4.67;;
28545;SDS011;15749;49.606;8.738;2022-10-31T00:13:27;9.50;;;4.80;;
28545;SDS011;15749;49.606;8.738;2022-10-31T00:16:24;5.50;;;4.70;;
28545;SDS011;15749;49.606;8.738;2022-10-31T00:19:58;6.77;;;4.60;;
28545;SDS011;15749;49.606;8.738;2022-10-31T00:22:46;6.70;;;4.13;;
28545;SDS011;15749;49.606;8.738;2022-10-31T00:25:39;5.57;;;4.10;;
28545;SDS011;15749;49.606;8.738;2022-10-31T00:28:27;5.60;;;4.50;;
28545;SDS011;15749;49.606;8.738;2022-10-31T00:31:17;6.67;;;4.20;;
28545;SDS011;15749;49.606;8.738;2022-10-31T00:34:09;5.77;;;3.80;;
28545;SDS011;15749;49.606;8.738;2022-10-31T00:37:01;4.73;;;3.70;;
28545;SDS011;15749;49.606;8.738;2022-10-31T00:40:00;4.37;;;3.57;;
28545;SDS011;15749;49.606;8.738;2022-10-31T00:42:57;6.10;;;3.63;;
28545;SDS011;15749;49.606;8.738;2022-10-31T00:45:45;4.27;;;3.37;;
28545;SDS011;15749;49.606;8.738;2022-10-31T00:48:34;5.07;;;3.50;;
28545;SDS011;15749;49.606;8.738;2022-10-31T00:51:22;4.37;;;3.53;;
28545;SDS011;15749;49.606;8.738;2022-10-31T00:54:17;6.43;;;3.60;;
28545;SDS011;15749;49.606;8.738;2022-10-31T00:57:42;4.73;;;3.37;;
28545;SDS011;15749;49.606;8.738;2022-10-31T01:00:53;5.03;;;3.33;;
28545;SDS011;15749;49.606;8.738;2022-10-31T01:03:55;7.30;;;4.30;;
28545;SDS011;15749;49.606;8.738;2022-10-31T01:06:46;6.00;;;3.97;;
28545;SDS011;15749;49.606;8.738;2022-10-31T01:09:41;4.17;;;3.77;;
28545;SDS011;15749;49.606;8.738;2022-10-31T01:12:30;5.00;;;3.80;;
28545;SDS011;15749;49.606;8.738;2022-10-31T01:15:23;5.33;;;3.97;;
28545;SDS011;15749;49.606;8.738;2022-10-31T01:18:13;4.33;;;3.90;;
28545;SDS011;15749;49.606;8.738;2022-10-31T01:21:22;4.90;;;3.80;;
28545;SDS011;15749;49.606;8.738;2022-10-31T01:24:40;6.03;;;4.07;;
28545;SDS011;15749;49.606;8.738;2022-10-31T01:27:28;4.90;;;3.47;;
28545;SDS011;15749;49.606;8.738;2022-10-31T01:30:15;3.80;;;3.43;;
28545;SDS011;15749;49.606;8.738;2022-10-31T01:33:03;4.53;;;3.27;;
28545;SDS011;15749;49.606;8.738;2022-10-31T01:35:59;5.43;;;3.57;;
28545;SDS011;15749;49.606;8.738;2022-10-31T01:39:11;6.87;;;3.07;;
28545;SDS011;15749;49.606;8.738;2022-10-31T01:42:25;6.03;;;3.40;;
28545;SDS011;15749;49.606;8.738;2022-10-31T01:45:22;5.87;;;3.10;;
28545;SDS011;15749;49.606;8.738;2022-10-31T01:48:12;4.40;;;2.83;;
28545;SDS011;15749;49.606;8.738;2022-10-31T01:51:04;3.33;;;2.90;;
28545;SDS011;15749;49.606;8.738;2022-10-31T01:53:57;4.90;;;3.40;;
28545;SDS011;15749;49.606;8.738;2022-10-31T01:56:49;3.37;;;3.07;;
28545;SDS011;15749;49.606;8.738;2022-10-31T01:59:40;5.87;;;2.90;;
28545;SDS011;15749;49.606;8.738;2022-10-31T02:02:36;4.70;;;3.30;;
28545;SDS011;15749;49.606;8.738;2022-10-31T02:05:25;4.20;;;2.57;;
28545;SDS011;15749;49.606;8.738;2022-10-31T02:08:18;5.83;;;2.93;;
28545;SDS011;15749;49.606;8.738;2022-10-31T02:11:13;4.73;;;3.03;;
28545;SDS011;15749;49.606;8.738;2022-10-31T02:14:02;4.83;;;3.37;;
28545;SDS011;15749;49.606;8.738;2022-10-31T02:16:51;5.27;;;3.20;;
28545;SDS011;15749;49.606;8.738;2022-10-31T02:19:40;4.27;;;3.60;;
28545;SDS011;15749;49.606;8.738;2022-10-31T02:26:17;5.80;;;3.03;;
28545;SDS011;15749;49.606;8.738;2022-10-31T02:29:30;4.47;;;2.70;;
28545;SDS011;15749;49.606;8.738;2022-10-31T02:33:07;4.83;;;3.07;;
28545;SDS011;15749;49.606;8.738;2022-10-31T02:36:09;3.77;;;2.97;;
28545;SDS011;15749;49.606;8.738;2022-10-31T02:39:18;3.50;;;2.63;;
28545;SDS011;15749;49.606;8.738;2022-10-31T02:43:36;3.83;;;2.90;;
28545;SDS011;15749;49.606;8.738;2022-10-31T02:46:32;3.47;;;2.87;;
28545;SDS011;15749;49.606;8.738;2022-10-31T02:49:29;4.23;;;3.10;;
28545;SDS011;15749;49.606;8.738;2022-10-31T02:52:24;4.40;;;3.03;;
28545;SDS011;15749;49.606;8.738;2022-10-31T02:58:47;4.77;;;3.03;;
28545;SDS011;15749;49.606;8.738;2022-10-31T03:01:47;4.27;;;3.07;;
28545;SDS011;15749;49.606;8.738;2022-10-31T03:05:16;5.87;;;2.80;;
28545;SDS011;15749;49.606;8.738;2022-10-31T03:08:20;4.03;;;2.97;;
28545;SDS011;15749;49.606;8.738;2022-10-31T03:11:14;4.63;;;2.93;;
28545;SDS011;15749;49.606;8.738;2022-10-31T03:14:07;3.17;;;2.87;;
28545;SDS011;15749;49.606;8.738;2022-10-31T03:17:01;3.60;;;2.90;;
28545;SDS011;15749;49.606;8.738;2022-10-31T03:19:54;3.67;;;3.20;;
28545;SDS011;15749;49.606;8.738;2022-10-31T03:22:46;3.43;;;2.70;;
28545;SDS011;15749;49.606;8.738;2022-10-31T03:25:34;3.07;;;2.60;;
28545;SDS011;15749;49.606;8.738;2022-10-31T03:28:26;4.80;;;2.63;;
28545;SDS011;15749;49.606;8.738;2022-10-31T03:31:19;4.13;;;2.60;;
28545;SDS011;15749;49.606;8.738;2022-10-31T03:34:13;4.93;;;2.87;;
28545;SDS011;15749;49.606;8.738;2022-10-31T03:37:19;3.20;;;2.50;;
28545;SDS011;15749;49.606;8.738;2022-10-31T03:40:13;4.73;;;3.03;;
28545;SDS011;15749;49.606;8.738;2022-10-31T03:43:26;3.20;;;2.40;;
28545;SDS011;15749;49.606;8.738;2022-10-31T03:46:20;5.87;;;2.90;;
28545;SDS011;15749;49.606;8.738;2022-10-31T03:49:08;3.13;;;2.50;;
28545;SDS011;15749;49.606;8.738;2022-10-31T03:52:13;4.03;;;2.37;;
28545;SDS011;15749;49.606;8.738;2022-10-31T03:55:09;3.30;;;2.37;;
28545;SDS011;15749;49.606;8.738;2022-10-31T03:58:05;3.00;;;2.63;;
28545;SDS011;15749;49.606;8.738;2022-10-31T04:00:56;3.00;;;2.53;;
28545;SDS011;15749;49.606;8.738;2022-10-31T04:03:48;4.43;;;2.60;;
28545;SDS011;15749;49.606;8.738;2022-10-31T04:06:37;3.00;;;2.30;;
28545;SDS011;15749;49.606;8.738;2022-10-31T04:09:29;4.40;;;2.63;;
28545;SDS011;15749;49.606;8.738;2022-10-31T04:12:24;7.17;;;6.13;;
28545;SDS011;15749;49.606;8.738;2022-10-31T04:15:41;7.03;;;5.40;;
28545;SDS011;15749;49.606;8.738;2022-10-31T04:18:33;4.27;;;3.77;;
28545;SDS011;15749;49.606;8.738;2022-10-31T04:21:26;3.87;;;3.17;;
28545;SDS011;15749;49.606;8.738;2022-10-31T04:24:16;3.27;;;2.80;;
28545;SDS011;15749;49.606;8.738;2022-10-31T04:27:14;3.07;;;2.77;;
28545;SDS011;15749;49.606;8.738;2022-10-31T04:30:03;3.13;;;2.40;;
28545;SDS011;15749;49.606;8.738;2022-10-31T04:32:57;7.10;;;3.03;;
28545;SDS011;15749;49.606;8.738;2022-10-31T04:36:29;3.97;;;2.67;;
28545;SDS011;15749;49.606;8.738;2022-10-31T04:39:17;5.20;;;2.87;;
28545;SDS011;15749;49.606;8.738;2022-10-31T04:42:39;4.20;;;2.43;;
28545;SDS011;15749;49.606;8.738;2022-10-31T04:45:29;2.50;;;2.30;;
28545;SDS011;15749;49.606;8.738;2022-10-31T04:48:20;2.70;;;2.10;;
28545;SDS011;15749;49.606;8.738;2022-10-31T04:51:08;3.87;;;2.60;;
28545;SDS011;15749;49.606;8.738;2022-10-31T04:53:56;3.50;;;3.10;;
28545;SDS011;15749;49.606;8.738;2022-10-31T04:57:49;4.47;;;2.90;;
28545;SDS011;15749;49.606;8.738;2022-10-31T05:01:10;3.20;;;2.70;;
28545;SDS011;15749;49.606;8.738;2022-10-31T05:04:43;4.13;;;2.30;;
28545;SDS011;15749;49.606;8.738;2022-10-31T05:07:32;3.80;;;2.73;;
28545;SDS011;15749;49.606;8.738;2022-10-31T05:10:20;6.47;;;2.37;;
28545;SDS011;15749;49.606;8.738;2022-10-31T05:13:10;2.83;;;2.27;;
28545;SDS011;15749;49.606;8.738;2022-10-31T05:16:20;2.73;;;2.43;;
28545;SDS011;15749;49.606;8.738;2022-10-31T05:19:27;5.37;;;2.50;;
28545;SDS011;15749;49.606;8.738;2022-10-31T05:22:44;4.23;;;2.50;;
28545;SDS011;15749;49.606;8.738;2022-10-31T05:25:35;3.77;;;2.60;;
28545;SDS011;15749;49.606;8.738;2022-10-31T05:28:45;2.80;;;2.40;;
28545;SDS011;15749;49.606;8.738;2022-10-31T05:31:35;5.23;;;2.73;;
28545;SDS011;15749;49.606;8.738;2022-10-31T05:34:42;3.73;;;2.60;;
28545;SDS011;15749;49.606;8.738;2022-10-31T05:37:56;2.90;;;2.13;;
28545;SDS011;15749;49.606;8.738;2022-10-31T05:40:45;3.20;;;2.40;;
28545;SDS011;15749;49.606;8.738;2022-10-31T05:43:33;4.53;;;2.60;;
28545;SDS011;15749;49.606;8.738;2022-10-31T05:46:24;3.60;;;2.60;;
28545;SDS011;15749;49.606;8.738;2022-10-31T05:53:02;3.90;;;2.93;;
28545;SDS011;15749;49.606;8.738;2022-10-31T05:55:56;3.50;;;2.50;;
28545;SDS011;15749;49.606;8.738;2022-10-31T05:58:44;5.47;;;2.43;;
28545;SDS011;15749;49.606;8.738;2022-10-31T06:01:32;4.00;;;2.47;;
28545;SDS011;15749;49.606;8.738;2022-10-31T06:04:24;4.80;;;2.80;;
28545;SDS011;15749;49.606;8.738;2022-10-31T06:07:13;3.27;;;2.60;;
28545;SDS011;15749;49.606;8.738;2022-10-31T06:10:21;3.23;;;2.93;;
28545;SDS011;15749;49.606;8.738;2022-10-31T06:13:23;6.07;;;2.93;;
28545;SDS011;15749;49.606;8.738;2022-10-31T06:16:18;4.60;;;2.77;;
28545;SDS011;15749;49.606;8.738;2022-10-31T06:19:06;6.27;;;3.43;;
28545;SDS011;15749;49.606;8.738;2022-10-31T06:22:10;3.73;;;2.67;;
28545;SDS011;15749;49.606;8.738;2022-10-31T06:24:59;6.10;;;3.17;;
28545;SDS011;15749;49.606;8.738;2022-10-31T06:27:51;3.37;;;2.73;;
28545;SDS011;15749;49.606;8.738;2022-10-31T06:30:43;3.13;;;2.83;;
28545;SDS011;15749;49.606;8.738;2022-10-31T06:33:32;2.73;;;2.43;;
28545;SDS011;15749;49.606;8.738;2022-10-31T06:36:23;2.77;;;2.37;;
28545;SDS011;15749;49.606;8.738;2022-10-31T06:39:16;4.17;;;2.43;;
28545;SDS011;15749;49.606;8.738;2022-10-31T06:42:08;4.70;;;2.63;;
28545;SDS011;15749;49.606;8.738;2022-10-31T06:44:56;3.40;;;2.57;;
28545;SDS011;15749;49.606;8.738;2022-10-31T06:48:11;2.30;;;2.10;;
28545;SDS011;15749;49.606;8.738;2022-10-31T06:52:15;3.90;;;2.37;;
28545;SDS011;15749;49.606;8.738;2022-10-31T06:55:03;3.50;;;2.30;;
28545;SDS011;15749;49.606;8.738;2022-10-31T06:58:49;3.27;;;2.30;;
28545;SDS011;15749;49.606;8.738;2022-10-31T07:05:40;4.17;;;2.63;;
28545;SDS011;15749;49.606;8.738;2022-10-31T07:08:11;4.03;;;2.97;;
28545;SDS011;15749;49.606;8.738;2022-10-31T07:10:50;4.63;;;2.70;;
28545;SDS011;15749;49.606;8.738;2022-10-31T07:13:33;4.33;;;2.60;;
28545;SDS011;15749;49.606;8.738;2022-10-31T07:16:08;3.70;;;2.37;;
28545;SDS011;15749;49.606;8.738;2022-10-31T07:19:50;3.80;;;2.60;;
28545;SDS011;15749;49.606;8.738;2022-10-31T07:22:43;4.73;;;2.43;;
28545;SDS011;15749;49.606;8.738;2022-10-31T07:26:24;2.23;;;2.03;;
28545;SDS011;15749;49.606;8.738;2022-10-31T07:29:37;2.93;;;2.10;;
28545;SDS011;15749;49.606;8.738;2022-10-31T07:32:57;2.63;;;2.10;;
28545;SDS011;15749;49.606;8.738;2022-10-31T07:36:48;3.43;;;2.17;;
28545;SDS011;15749;49.606;8.738;2022-10-31T07:39:57;2.47;;;1.93;;
28545;SDS011;15749;49.606;8.738;2022-10-31T07:42:58;5.10;;;2.33;;
28545;SDS011;15749;49.606;8.738;2022-10-31T07:45:57;4.83;;;2.70;;
28545;SDS011;15749;49.606;8.738;2022-10-31T07:48:46;4.80;;;3.30;;
28545;SDS011;15749;49.606;8.738;2022-10-31T07:51:35;3.50;;;2.67;;
28545;SDS011;15749;49.606;8.738;2022-10-31T07:54:38;3.63;;;2.50;;
28545;SDS011;15749;49.606;8.738;2022-10-31T07:57:08;4.17;;;2.87;;
28545;SDS011;15749;49.606;8.738;2022-10-31T07:59:48;6.70;;;3.40;;
28545;SDS011;15749;49.606;8.738;2022-10-31T08:02:21;3.57;;;2.77;;
28545;SDS011;15749;49.606;8.738;2022-10-31T08:05:11;3.73;;;2.50;;
28545;SDS011;15749;49.606;8.738;2022-10-31T08:08:10;5.60;;;3.03;;
28545;SDS011;15749;49.606;8.738;2022-10-31T08:10:47;3.80;;;3.07;;
28545;SDS011;15749;49.606;8.738;2022-10-31T08:13:34;4.07;;;2.60;;
28545;SDS011;15749;49.606;8.738;2022-10-31T08:16:17;4.37;;;2.63;;
28545;SDS011;15749;49.606;8.738;2022-10-31T08:19:09;5.43;;;2.97;;
28545;SDS011;15749;49.606;8.738;2022-10-31T08:21:41;4.97;;;3.10;;
28545;SDS011;15749;49.606;8.738;2022-10-31T08:25:32;7.70;;;3.13;;
28545;SDS011;15749;49.606;8.738;2022-10-31T08:27:50;4.43;;;3.07;;
28545;SDS011;15749;49.606;8.738;2022-10-31T08:30:30;4.20;;;2.93;;
28545;SDS011;15749;49.606;8.738;2022-10-31T08:33:49;4.53;;;3.03;;
28545;SDS011;15749;49.606;8.738;2022-10-31T08:37:03;3.17;;;2.70;;
28545;SDS011;15749;49.606;8.738;2022-10-31T08:40:59;3.47;;;2.40;;
28545;SDS011;15749;49.606;8.738;2022-10-31T08:44:13;5.43;;;2.63;;
28545;SDS011;15749;49.606;8.738;2022-10-31T08:47:25;3.93;;;2.87;;
28545;SDS011;15749;49.606;8.738;2022-10-31T08:51:06;4.40;;;2.50;;
28545;SDS011;15749;49.606;8.738;2022-10-31T08:59:10;4.70;;;2.90;;
28545;SDS011;15749;49.606;8.738;2022-10-31T09:03:57;5.30;;;2.47;;
28545;SDS011;15749;49.606;8.738;2022-10-31T09:30:38;3.33;;;2.43;;
28545;SDS011;15749;49.606;8.738;2022-10-31T09:33:22;3.47;;;2.37;;
28545;SDS011;15749;49.606;8.738;2022-10-31T09:36:11;5.70;;;2.40;;
28545;SDS011;15749;49.606;8.738;2022-10-31T09:38:41;9.73;;;2.83;;
28545;SDS011;15749;49.606;8.738;2022-10-31T09:41:13;3.40;;;2.23;;
28545;SDS011;15749;49.606;8.738;2022-10-31T09:43:53;4.00;;;2.33;;
28545;SDS011;15749;49.606;8.738;2022-10-31T09:46:46;5.13;;;2.67;;
28545;SDS011;15749;49.606;8.738;2022-10-31T09:49:35;2.50;;;1.80;;
28545;SDS011;15749;49.606;8.738;2022-10-31T09:52:30;5.73;;;2.97;;
28545;SDS011;15749;49.606;8.738;2022-10-31T09:55:08;4.47;;;2.30;;
28545;SDS011;15749;49.606;8.738;2022-10-31T09:57:46;2.70;;;2.40;;
28545;SDS011;15749;49.606;8.738;2022-10-31T10:00:16;3.37;;;2.53;;
28545;SDS011;15749;49.606;8.738;2022-10-31T10:02:49;4.20;;;2.50;;
28545;SDS011;15749;49.606;8.738;2022-10-31T10:05:27;5.23;;;2.30;;
28545;SDS011;15749;49.606;8.738;2022-10-31T10:08:10;6.00;;;2.50;;
28545;SDS011;15749;49.606;8.738;2022-10-31T10:11:06;4.50;;;2.70;;
28545;SDS011;15749;49.606;8.738;2022-10-31T10:14:19;4.50;;;2.23;;
28545;SDS011;15749;49.606;8.738;2022-10-31T10:17:05;3.67;;;2.50;;
28545;SDS011;15749;49.606;8.738;2022-10-31T10:19:55;4.82;;;2.00;;
28545;SDS011;15749;49.606;8.738;2022-10-31T10:23:05;4.90;;;2.17;;
28545;SDS011;15749;49.606;8.738;2022-10-31T10:26:05;4.28;;;2.50;;
28545;SDS011;15749;49.606;8.738;2022-10-31T10:28:44;3.78;;;2.22;;
28545;SDS011;15749;49.606;8.738;2022-10-31T10:31:17;2.95;;;2.13;;
28545;SDS011;15749;49.606;8.738;2022-10-31T10:33:55;3.10;;;2.60;;
28545;SDS011;15749;49.606;8.738;2022-10-31T10:36:34;5.13;;;3.08;;
28545;SDS011;15749;49.606;8.738;2022-10-31T10:39:11;4.25;;;2.80;;
28545;SDS011;15749;49.606;8.738;2022-10-31T10:41:47;5.00;;;3.00;;
28545;SDS011;15749;49.606;8.738;2022-10-31T10:44:36;3.70;;;2.70;;
28545;SDS011;15749;49.606;8.738;2022-10-31T10:47:30;3.08;;;2.38;;
28545;SDS011;15749;49.606;8.738;2022-10-31T10:50:10;4.47;;;3.25;;
28545;SDS011;15749;49.606;8.738;2022-10-31T10:52:48;6.38;;;3.88;;
28545;SDS011;15749;49.606;8.738;2022-10-31T10:55:29;5.10;;;3.25;;
28545;SDS011;15749;49.606;8.738;2022-10-31T10:58:07;4.90;;;2.40;;
28545;SDS011;15749;49.606;8.738;2022-10-31T11:00:38;4.15;;;2.40;;
28545;SDS011;15749;49.606;8.738;2022-10-31T11:03:13;3.22;;;2.17;;
28545;SDS011;15749;49.606;8.738;2022-10-31T11:05:44;6.72;;;2.47;;
28545;SDS011;15749;49.606;8.738;2022-10-31T11:08:25;4.82;;;2.45;;
28545;SDS011;15749;49.606;8.738;2022-10-31T11:10:57;5.65;;;2.58;;
28545;SDS011;15749;49.606;8.738;2022-10-31T11:13:28;3.83;;;2.22;;
28545;SDS011;15749;49.606;8.738;2022-10-31T11:15:59;4.22;;;2.50;;
28545;SDS011;15749;49.606;8.738;2022-10-31T11:18:32;6.47;;;2.40;;
28545;SDS011;15749;49.606;8.738;2022-10-31T11:21:05;5.70;;;2.42;;
28545;SDS011;15749;49.606;8.738;2022-10-31T11:23:50;3.00;;;2.50;;
28545;SDS011;15749;49.606;8.738;2022-10-31T11:26:30;7.72;;;2.80;;
28545;SDS011;15749;49.606;8.738;2022-10-31T11:29:02;3.83;;;2.45;;
28545;SDS011;15749;49.606;8.738;2022-10-31T11:31:31;3.88;;;2.70;;
28545;SDS011;15749;49.606;8.738;2022-10-31T11:34:04;3.50;;;2.03;;
28545;SDS011;15749;49.606;8.738;2022-10-31T11:36:42;3.72;;;2.33;;
28545;SDS011;15749;49.606;8.738;2022-10-31T11:39:16;5.65;;;3.10;;
28545;SDS011;15749;49.606;8.738;2022-10-31T11:41:48;6.20;;;2.80;;
28545;SDS011;15749;49.606;8.738;2022-10-31T11:44:19;5.03;;;2.80;;
28545;SDS011;15749;49.606;8.738;2022-10-31T11:46:51;4.13;;;2.50;;
28545;SDS011;15749;49.606;8.738;2022-10-31T11:49:25;3.35;;;2.63;;
28545;SDS011;15749;49.606;8.738;2022-10-31T11:52:00;4.35;;;2.28;;
28545;SDS011;15749;49.606;8.738;2022-10-31T11:54:38;3.35;;;2.40;;
28545;SDS011;15749;49.606;8.738;2022-10-31T12:00:20;3.75;;;2.58;;
28545;SDS011;15749;49.606;8.738;2022-10-31T12:03:03;5.85;;;2.90;;
28545;SDS011;15749;49.606;8.738;2022-10-31T12:05:39;4.82;;;2.95;;
28545;SDS011;15749;49.606;8.738;2022-10-31T12:08:12;3.83;;;2.70;;
28545;SDS011;15749;49.606;8.738;2022-10-31T12:10:46;4.13;;;3.05;;
28545;SDS011;15749;49.606;8.738;2022-10-31T12:13:32;5.55;;;2.65;;
28545;SDS011;15749;49.606;8.738;2022-10-31T12:16:09;6.20;;;2.80;;
28545;SDS011;15749;49.606;8.738;2022-10-31T12:18:58;5.20;;;2.88;;
28545;SDS011;15749;49.606;8.738;2022-10-31T12:21:44;4.07;;;3.30;;
28545;SDS011;15749;49.606;8.738;2022-10-31T12:24:35;4.20;;;2.97;;
28545;SDS011;15749;49.606;8.738;2022-10-31T12:27:55;3.22;;;2.40;;
28545;SDS011;15749;49.606;8.738;2022-10-31T12:30:43;4.50;;;3.08;;
28545;SDS011;15749;49.606;8.738;2022-10-31T12:33:30;6.00;;;3.10;;
28545;SDS011;15749;49.606;8.738;2022-10-31T12:39:19;4.82;;;3.10;;
28545;SDS011;15749;49.606;8.738;2022-10-31T12:41:55;3.58;;;3.08;;
28545;SDS011;15749;49.606;8.738;2022-10-31T12:47:37;7.53;;;3.33;;
28545;SDS011;15749;49.606;8.738;2022-10-31T12:50:27;4.55;;;3.30;;
28545;SDS011;15749;49.606;8.738;2022-10-31T12:53:13;4.50;;;3.05;;
28545;SDS011;15749;49.606;8.738;2022-10-31T12:55:58;4.00;;;3.08;;
28545;SDS011;15749;49.606;8.738;2022-10-31T12:58:40;5.43;;;3.17;;
28545;SDS011;15749;49.606;8.738;2022-10-31T13:01:18;9.07;;;4.00;;
28545;SDS011;15749;49.606;8.738;2022-10-31T13:03:55;6.57;;;4.00;;
28545;SDS011;15749;49.606;8.738;2022-10-31T13:06:32;7.05;;;3.72;;
28545;SDS011;15749;49.606;8.738;2022-10-31T13:09:11;8.13;;;4.07;;
28545;SDS011;15749;49.606;8.738;2022-10-31T13:11:47;7.38;;;3.90;;
28545;SDS011;15749;49.606;8.738;2022-10-31T13:14:24;4.97;;;3.67;;
28545;SDS011;15749;49.606;8.738;2022-10-31T13:17:00;4.72;;;3.90;;
28545;SDS011;15749;49.606;8.738;2022-10-31T13:19:31;6.40;;;3.88;;
28545;SDS011;15749;49.606;8.738;2022-10-31T13:22:07;5.37;;;4.00;;
28545;SDS011;15749;49.606;8.738;2022-10-31T13:24:41;6.10;;;3.55;;
28545;SDS011;15749;49.606;8.738;2022-10-31T13:27:17;6.18;;;3.55;;
28545;SDS011;15749;49.606;8.738;2022-10-31T13:29:56;4.50;;;3.25;;
28545;SDS011;15749;49.606;8.738;2022-10-31T13:32:37;7.68;;;4.40;;
28545;SDS011;15749;49.606;8.738;2022-10-31T13:35:14;6.63;;;4.17;;
28545;SDS011;15749;49.606;8.738;2022-10-31T13:37:54;7.77;;;4.67;;
28545;SDS011;15749;49.606;8.738;2022-10-31T13:40:38;8.47;;;4.80;;
28545;SDS011;15749;49.606;8.738;2022-10-31T13:43:19;8.67;;;5.13;;
28545;SDS011;15749;49.606;8.738;2022-10-31T13:45:57;7.73;;;5.00;;
28545;SDS011;15749;49.606;8.738;2022-10-31T13:48:39;11.13;;;4.70;;
28545;SDS011;15749;49.606;8.738;2022-10-31T13:51:10;6.63;;;5.07;;
28545;SDS011;15749;49.606;8.738;2022-10-31T13:53:42;6.78;;;4.70;;
28545;SDS011;15749;49.606;8.738;2022-10-31T13:56:28;8.00;;;4.70;;
28545;SDS011;15749;49.606;8.738;2022-10-31T13:59:02;7.10;;;4.77;;
28545;SDS011;15749;49.606;8.738;2022-10-31T14:01:49;7.20;;;4.70;;
28545;SDS011;15749;49.606;8.738;2022-10-31T14:04:26;4.43;;;3.90;;
28545;SDS011;15749;49.606;8.738;2022-10-31T14:07:05;5.37;;;4.50;;
28545;SDS011;15749;49.606;8.738;2022-10-31T14:09:38;8.07;;;4.73;;
28545;SDS011;15749;49.606;8.738;2022-10-31T14:12:22;6.77;;;4.07;;
28545;SDS011;15749;49.606;8.738;2022-10-31T14:14:59;6.97;;;4.20;;
28545;SDS011;15749;49.606;8.738;2022-10-31T14:17:38;6.82;;;4.13;;
28545;SDS011;15749;49.606;8.738;2022-10-31T14:20:24;4.72;;;3.30;;
28545;SDS011;15749;49.606;8.738;2022-10-31T14:29:03;7.10;;;3.30;;
28545;SDS011;15749;49.606;8.738;2022-10-31T14:32:04;5.03;;;3.10;;
28545;SDS011;15749;49.606;8.738;2022-10-31T14:34:50;2.53;;;2.10;;
28545;SDS011;15749;49.606;8.738;2022-10-31T14:37:34;4.03;;;3.10;;
28545;SDS011;15749;49.606;8.738;2022-10-31T14:40:45;6.47;;;3.23;;
28545;SDS011;15749;49.606;8.738;2022-10-31T14:43:48;6.57;;;2.80;;
28545;SDS011;15749;49.606;8.738;2022-10-31T14:46:36;4.30;;;2.93;;
28545;SDS011;15749;49.606;8.738;2022-10-31T14:49:19;6.50;;;3.40;;
28545;SDS011;15749;49.606;8.738;2022-10-31T14:52:07;5.17;;;3.93;;
28545;SDS011;15749;49.606;8.738;2022-10-31T14:54:43;4.83;;;3.90;;
28545;SDS011;15749;49.606;8.738;2022-10-31T14:57:20;6.43;;;5.13;;
28545;SDS011;15749;49.606;8.738;2022-10-31T14:59:55;7.93;;;6.03;;
28545;SDS011;15749;49.606;8.738;2022-10-31T15:02:31;6.63;;;5.83;;
28545;SDS011;15749;49.606;8.738;2022-10-31T15:05:06;7.40;;;5.63;;
28545;SDS011;15749;49.606;8.738;2022-10-31T15:07:47;8.87;;;6.27;;
28545;SDS011;15749;49.606;8.738;2022-10-31T15:10:21;10.67;;;6.33;;
28545;SDS011;15749;49.606;8.738;2022-10-31T15:12:53;10.17;;;6.80;;
28545;SDS011;15749;49.606;8.738;2022-10-31T15:15:23;7.07;;;5.90;;
28545;SDS011;15749;49.606;8.738;2022-10-31T15:17:55;7.63;;;5.70;;
28545;SDS011;15749;49.606;8.738;2022-10-31T15:20:29;13.43;;;6.67;;
28545;SDS011;15749;49.606;8.738;2022-10-31T15:23:04;8.47;;;6.37;;
28545;SDS011;15749;49.606;8.738;2022-10-31T15:25:41;7.30;;;5.70;;
28545;SDS011;15749;49.606;8.738;2022-10-31T15:28:13;10.87;;;5.87;;
28545;SDS011;15749;49.606;8.738;2022-10-31T15:30:50;6.43;;;5.50;;
28545;SDS011;15749;49.606;8.738;2022-10-31T15:33:22;7.47;;;5.20;;
28545;SDS011;15749;49.606;8.738;2022-10-31T15:36:04;8.93;;;5.63;;
28545;SDS011;15749;49.606;8.738;2022-10-31T15:38:34;7.07;;;4.60;;
28545;SDS011;15749;49.606;8.738;2022-10-31T15:41:05;7.47;;;4.40;;
28545;SDS011;15749;49.606;8.738;2022-10-31T15:44:02;9.87;;;5.03;;
28545;SDS011;15749;49.606;8.738;2022-10-31T15:46:39;9.87;;;5.40;;
28545;SDS011;15749;49.606;8.738;2022-10-31T15:49:17;8.17;;;6.37;;
28545;SDS011;15749;49.606;8.738;2022-10-31T15:52:09;6.13;;;5.53;;
28545;SDS011;15749;49.606;8.738;2022-10-31T15:54:45;7.37;;;5.43;;
28545;SDS011;15749;49.606;8.738;2022-10-31T15:57:19;8.70;;;6.03;;
28545;SDS011;15749;49.606;8.738;2022-10-31T15:59:48;8.17;;;6.23;;
28545;SDS011;15749;49.606;8.738;2022-10-31T16:02:19;7.93;;;6.37;;
28545;SDS011;15749;49.606;8.738;2022-10-31T16:04:52;7.63;;;6.17;;
28545;SDS011;15749;49.606;8.738;2022-10-31T16:07:25;9.73;;;6.23;;
28545;SDS011;15749;49.606;8.738;2022-10-31T16:09:55;11.37;;;6.00;;
28545;SDS011;15749;49.606;8.738;2022-10-31T16:12:31;11.37;;;6.83;;
28545;SDS011;15749;49.606;8.738;2022-10-31T16:15:05;11.23;;;6.80;;
28545;SDS011;15749;49.606;8.738;2022-10-31T16:17:45;11.13;;;6.67;;
28545;SDS011;15749;49.606;8.738;2022-10-31T16:20:19;10.00;;;6.90;;
28545;SDS011;15749;49.606;8.738;2022-10-31T16:22:52;10.17;;;6.40;;
28545;SDS011;15749;49.606;8.738;2022-10-31T16:25:25;7.97;;;6.33;;
28545;SDS011;15749;49.606;8.738;2022-10-31T16:27:59;8.07;;;5.67;;
28545;SDS011;15749;49.606;8.738;2022-10-31T16:30:36;6.60;;;5.63;;
28545;SDS011;15749;49.606;8.738;2022-10-31T16:33:22;7.43;;;6.23;;
28545;SDS011;15749;49.606;8.738;2022-10-31T16:35:57;6.60;;;5.87;;
28545;SDS011;15749;49.606;8.738;2022-10-31T16:38:48;6.17;;;5.17;;
28545;SDS011;15749;49.606;8.738;2022-10-31T16:41:18;5.60;;;4.97;;
28545;SDS011;15749;49.606;8.738;2022-10-31T16:43:49;9.47;;;6.23;;
28545;SDS011;15749;49.606;8.738;2022-10-31T16:46:20;8.97;;;7.03;;
28545;SDS011;15749;49.606;8.738;2022-10-31T16:48:53;10.40;;;7.33;;
28545;SDS011;15749;49.606;8.738;2022-10-31T16:51:25;11.17;;;8.07;;
28545;SDS011;15749;49.606;8.738;2022-10-31T16:53:55;11.13;;;8.23;;
28545;SDS011;15749;49.606;8.738;2022-10-31T16:56:26;8.00;;;6.53;;
28545;SDS011;15749;49.606;8.738;2022-10-31T16:58:59;11.50;;;7.20;;
28545;SDS011;15749;49.606;8.738;2022-10-31T17:01:32;7.67;;;6.17;;
28545;SDS011;15749;49.606;8.738;2022-10-31T17:04:03;10.20;;;6.93;;
28545;SDS011;15749;49.606;8.738;2022-10-31T17:06:32;6.23;;;5.30;;
28545;SDS011;15749;49.606;8.738;2022-10-31T17:09:03;8.03;;;5.87;;
28545;SDS011;15749;49.606;8.738;2022-10-31T17:11:32;10.90;;;6.67;;
28545;SDS011;15749;49.606;8.738;2022-10-31T17:14:04;9.87;;;7.60;;
28545;SDS011;15749;49.606;8.738;2022-10-31T17:16:33;9.47;;;6.60;;
28545;SDS011;15749;49.606;8.738;2022-10-31T17:19:03;6.53;;;5.63;;
28545;SDS011;15749;49.606;8.738;2022-10-31T17:21:32;7.47;;;5.60;;
28545;SDS011;15749;49.606;8.738;2022-10-31T17:24:02;10.27;;;4.97;;
28545;SDS011;15749;49.606;8.738;2022-10-31T17:26:32;5.60;;;4.50;;
28545;SDS011;15749;49.606;8.738;2022-10-31T17:29:01;4.93;;;3.87;;
28545;SDS011;15749;49.606;8.738;2022-10-31T17:31:33;6.70;;;5.00;;
28545;SDS011;15749;49.606;8.738;2022-10-31T17:34:05;7.83;;;6.00;;
28545;SDS011;15749;49.606;8.738;2022-10-31T17:36:35;11.40;;;6.37;;
28545;SDS011;15749;49.606;8.738;2022-10-31T17:39:04;9.27;;;5.50;;
28545;SDS011;15749;49.606;8.738;2022-10-31T17:41:35;7.97;;;6.00;;
28545;SDS011;15749;49.606;8.738;2022-10-31T17:44:08;7.77;;;6.27;;
28545;SDS011;15749;49.606;8.738;2022-10-31T17:46:38;9.83;;;6.50;;
28545;SDS011;15749;49.606;8.738;2022-10-31T17:49:09;8.43;;;6.80;;
28545;SDS011;15749;49.606;8.738;2022-10-31T17:51:39;8.07;;;6.47;;
28545;SDS011;15749;49.606;8.738;2022-10-31T17:54:08;7.27;;;5.50;;
28545;SDS011;15749;49.606;8.738;2022-10-31T17:56:38;7.13;;;5.13;;